INFORMACIÓN METAR y TAF
METAR FOR ESMQ
ADDS - METARS form results

(0908 UTC 25 August 2019)
Data provider http://aviationweather.gov/metar/data/
 
METAR text: ESMQ 250850Z 13007KT 100V160 9999 FEW020 22/16 Q1027
Conditions at: ESMQ (KALMAR , SE) observed 0850 UTC 25 August 2019
Temperature: 22.0°C (72°F)
Dewpoint: 16.0°C (61°F) [RH = 69%]
Pressure (altimeter): 30.32 inches Hg (1027.0 mb)
Winds: from the SE (130 degrees) at 8 MPH (7 knots; 3.6 m/s)
Visibility: 6 or more miles (10+ km)
Ceiling: at least 12,000 feet AGL
Clouds: few clouds at 2000 feet AGL
Weather: no significant weather observed at this time

METAR text: ESMQ 250820Z AUTO 13006KT 090V170 9999 FEW020/// 21/16 Q1027
Conditions at: ESMQ (KALMAR , SE) observed 0820 UTC 25 August 2019
Temperature: 21.0°C (70°F)
Dewpoint: 16.0°C (61°F) [RH = 73%]
Pressure (altimeter): 30.32 inches Hg (1027.0 mb)
Winds: from the SE (130 degrees) at 7 MPH (6 knots; 3.1 m/s)
Visibility: 6 or more miles (10+ km)
Ceiling: at least 12,000 feet AGL
Clouds: few clouds at 2000 feet AGL
Weather: no significant weather observed at this time

Forecast for: ESMQ (KALMAR , SE)
Text: TAF ESMQ 250830Z 2509/2518 13005KT CAVOK
Forecast period: 0900 to 1800 UTC 25 August 2019
Forecast type: FROM: standard forecast or significant change
Winds: from the SE (130 degrees) at 6 MPH (5 knots; 2.6 m/s)
Visibility: 6 or more miles 10+ km)
Ceiling: unknown
Clouds: missing
Weather: NSW  (no significant weather)

 MAPA DE AEROPUERTO

 INFORMACIÓN DE PISTA
Pista 05 Longitud 2179 ft Ancho 131 ft
Elevación 9 ft Umbral desplazado 0 ft Rumbo de pista 48
Pista 23 Longitud 2179 ft Ancho 131 ft
Elevación 11 ft Umbral desplazado 0 ft Rumbo de pista 228
Pista 16 Longitud 6726 ft Ancho 148 ft
Elevación 17 ft Umbral desplazado 0 ft Rumbo de pista 152
Pista 34 Longitud 6726 ft Ancho 148 ft
Elevación 15 ft Umbral desplazado 0 ft Rumbo de pista 332

 FRECUANCIAS DEL AEROPUERTO
Tipo TWR Nombre TWR Frecuencia 130.8 MHZ

 RADIO AYUDAS DEL AEROPUERTO
Tipo VOR-DME Nombre Kalmar Frecuencia 111600 KHZ



Powered by Virtual Airlines Manager [v2.6.2]